createdAt,value
2022-10-04T00:01:58.364Z,100.00
2022-10-04T00:04:51.727Z,100.00
2022-10-04T00:07:24.099Z,100.00
2022-10-04T00:09:57.546Z,100.00
2022-10-04T00:12:51.577Z,100.00
2022-10-04T00:15:27.753Z,100.00
2022-10-04T00:18:12.400Z,100.00
2022-10-04T00:20:53.100Z,100.00
2022-10-04T00:23:26.280Z,100.00
2022-10-04T00:25:59.021Z,100.00
2022-10-04T00:28:26.110Z,100.00
2022-10-04T00:31:18.943Z,100.00
2022-10-04T00:34:10.247Z,100.00
2022-10-04T00:36:48.399Z,100.00
2022-10-04T00:39:41.593Z,100.00
2022-10-04T00:43:04.874Z,100.00
2022-10-04T00:45:46.945Z,100.00
2022-10-04T00:48:30.489Z,100.00
2022-10-04T00:51:42.634Z,100.00
2022-10-04T00:54:20.003Z,100.00
2022-10-04T00:57:00.875Z,100.00
2022-10-04T00:59:44.876Z,100.00
2022-10-04T01:02:39.218Z,100.00
2022-10-04T01:05:18.110Z,100.00
2022-10-04T01:08:13.617Z,100.00
2022-10-04T01:10:52.780Z,100.00
2022-10-04T01:13:25.358Z,100.00
2022-10-04T01:16:07.700Z,100.00
2022-10-04T01:18:36.462Z,100.00
2022-10-04T01:21:19.603Z,100.00
2022-10-04T01:23:57.286Z,100.00
2022-10-04T01:26:39.595Z,100.00
2022-10-04T01:29:25.067Z,100.00
2022-10-04T01:31:55.987Z,100.00
2022-10-04T01:34:29.236Z,100.00
2022-10-04T01:36:59.502Z,100.00
2022-10-04T01:39:28.784Z,100.00
2022-10-04T01:42:37.439Z,100.00
2022-10-04T01:45:34.267Z,100.00
2022-10-04T01:48:09.776Z,100.00
2022-10-04T01:50:46.761Z,100.00
2022-10-04T01:53:44.853Z,100.00
2022-10-04T01:56:19.717Z,100.00
2022-10-04T01:59:00.489Z,100.00
2022-10-04T02:02:09.299Z,100.00
2022-10-04T02:04:39.686Z,100.00
2022-10-04T02:07:14.936Z,100.00
2022-10-04T02:09:47.704Z,100.00
2022-10-04T02:12:19.982Z,100.00
2022-10-04T02:14:53.243Z,100.00
2022-10-04T02:17:27.673Z,100.00
2022-10-04T02:19:55.407Z,99.82
2022-10-04T02:22:25.209Z,99.83
2022-10-04T02:24:56.383Z,100.00
2022-10-04T02:27:31.355Z,100.00
2022-10-04T02:30:05.701Z,100.00
2022-10-04T02:32:52.357Z,99.91
2022-10-04T02:35:20.675Z,98.67
2022-10-04T02:37:56.503Z,97.70
2022-10-04T02:40:31.156Z,99.28
2022-10-04T02:43:07.307Z,98.90
2022-10-04T02:45:44.951Z,99.38
2022-10-04T02:48:44.442Z,98.92
2022-10-04T02:51:59.676Z,97.55
2022-10-04T02:54:49.813Z,97.73
2022-10-04T02:57:23.390Z,98.48
2022-10-04T03:00:01.710Z,98.68
2022-10-04T03:02:31.120Z,99.41
2022-10-04T03:05:10.768Z,98.91
2022-10-04T03:07:39.437Z,99.05
2022-10-04T03:10:12.643Z,99.15
2022-10-04T03:12:40.895Z,99.29
2022-10-04T03:15:11.833Z,99.90
2022-10-04T03:17:42.700Z,99.57
2022-10-04T03:20:15.693Z,100.00
2022-10-04T03:22:47.164Z,100.00
2022-10-04T03:25:34.247Z,100.00
2022-10-04T03:28:02.913Z,100.00
2022-10-04T03:30:31.929Z,100.00
2022-10-04T03:32:59.896Z,100.00
2022-10-04T03:35:40.489Z,100.00
2022-10-04T03:38:12.476Z,100.00
2022-10-04T03:40:45.269Z,100.00
2022-10-04T03:43:14.361Z,100.00
2022-10-04T03:45:42.346Z,100.00
2022-10-04T03:48:15.013Z,100.00
2022-10-04T03:50:48.342Z,100.00
2022-10-04T03:53:35.808Z,100.00
2022-10-04T03:56:09.744Z,100.00
2022-10-04T03:58:37.123Z,100.00
2022-10-04T04:01:14.758Z,100.00
2022-10-04T04:03:57.307Z,100.00
2022-10-04T04:06:26.960Z,100.00
2022-10-04T04:08:56.572Z,100.00
2022-10-04T04:11:28.342Z,100.00
2022-10-04T04:14:14.665Z,100.00
2022-10-04T04:16:41.710Z,100.00
2022-10-04T04:19:15.740Z,100.00
2022-10-04T04:21:43.197Z,100.00
2022-10-04T04:24:32.246Z,100.00
2022-10-04T04:27:05.272Z,100.00
2022-10-04T04:30:00.211Z,100.00
2022-10-04T04:32:45.430Z,100.00
2022-10-04T04:35:33.663Z,100.00
2022-10-04T04:38:23.089Z,100.00
2022-10-04T04:40:55.577Z,100.00
2022-10-04T04:43:27.663Z,100.00
2022-10-04T04:46:25.558Z,100.00
2022-10-04T04:48:51.874Z,100.00
2022-10-04T04:51:24.714Z,100.00
2022-10-04T04:53:54.462Z,100.00
2022-10-04T04:56:26.560Z,100.00
2022-10-04T04:58:56.565Z,100.00
2022-10-04T05:01:33.856Z,100.00
2022-10-04T05:04:04.370Z,100.00
2022-10-04T05:06:34.222Z,100.00
2022-10-04T05:09:01.947Z,100.00
2022-10-04T05:11:37.783Z,100.00
2022-10-04T05:14:14.308Z,100.00
2022-10-04T05:16:46.249Z,100.00
2022-10-04T05:19:28.820Z,100.00
2022-10-04T05:22:02.496Z,100.00
2022-10-04T05:24:38.786Z,100.00
2022-10-04T05:27:31.613Z,100.00
2022-10-04T05:30:09.516Z,99.79
2022-10-04T05:33:00.889Z,99.91
2022-10-04T05:35:29.991Z,100.00
2022-10-04T05:38:29.014Z,100.00
2022-10-04T05:41:39.362Z,99.29
2022-10-04T05:44:31.578Z,99.67
2022-10-04T05:47:01.490Z,100.00
2022-10-04T05:49:43.948Z,100.00
2022-10-04T05:52:35.995Z,99.74
2022-10-04T05:55:51.579Z,99.01
2022-10-04T05:58:38.419Z,98.80
2022-10-04T06:01:26.562Z,98.05
2022-10-04T06:04:01.559Z,96.86
2022-10-04T06:06:51.466Z,95.82
2022-10-04T06:09:47.404Z,94.82
2022-10-04T06:12:47.993Z,93.34
2022-10-04T06:15:51.741Z,93.23
2022-10-04T06:19:09.649Z,90.34
2022-10-04T06:22:00.205Z,92.38
2022-10-04T06:24:37.372Z,93.83
2022-10-04T06:27:15.084Z,93.75
2022-10-04T06:30:02.827Z,92.22
2022-10-04T06:33:14.053Z,92.64
2022-10-04T06:36:05.202Z,93.35
2022-10-04T06:39:12.773Z,93.22
2022-10-04T06:42:15.259Z,93.31
2022-10-04T06:45:05.366Z,93.33
2022-10-04T06:47:49.618Z,92.43
2022-10-04T06:50:35.461Z,91.45
2022-10-04T06:53:11.759Z,92.17
2022-10-04T06:56:09.529Z,93.58
2022-10-04T06:59:09.777Z,92.67
2022-10-04T07:01:47.525Z,92.48
2022-10-04T07:05:06.548Z,93.02
2022-10-04T07:07:41.998Z,90.47
2022-10-04T07:10:18.053Z,89.94
2022-10-04T07:13:11.195Z,89.38
2022-10-04T07:15:59.644Z,90.49
2022-10-04T07:18:55.162Z,90.63
2022-10-04T07:21:26.276Z,90.81
2022-10-04T07:24:03.948Z,90.92
2022-10-04T07:26:48.816Z,88.44
2022-10-04T07:29:41.886Z,87.87
2022-10-04T07:32:28.961Z,89.53
2022-10-04T07:35:04.425Z,89.00
2022-10-04T07:37:46.347Z,89.17
2022-10-04T07:40:56.517Z,87.76
2022-10-04T07:43:34.177Z,86.97
2022-10-04T07:46:59.373Z,86.81
2022-10-04T07:49:27.170Z,86.88
2022-10-04T07:52:26.722Z,85.83
2022-10-04T07:55:15.124Z,85.76
2022-10-04T07:58:02.146Z,84.39
2022-10-04T08:01:01.705Z,84.04
2022-10-04T08:04:05.402Z,84.12
2022-10-04T08:06:58.116Z,83.21
2022-10-04T08:09:55.213Z,84.12
2022-10-04T08:12:34.738Z,83.56
2022-10-04T08:15:13.894Z,83.77
2022-10-04T08:18:23.442Z,83.25
2022-10-04T08:21:07.157Z,81.35
2022-10-04T08:24:07.237Z,82.71
2022-10-04T08:27:00.772Z,79.74
2022-10-04T08:30:08.065Z,79.81
2022-10-04T08:33:07.684Z,77.84
2022-10-04T08:35:53.878Z,77.21
2022-10-04T08:38:34.863Z,77.39
2022-10-04T08:41:27.007Z,76.27
2022-10-04T08:44:20.747Z,75.30
2022-10-04T08:47:45.987Z,75.89
2022-10-04T08:51:07.262Z,75.49
2022-10-04T08:53:49.003Z,72.97
2022-10-04T08:56:43.780Z,72.53
2022-10-04T08:59:51.187Z,71.70
2022-10-04T09:03:06.397Z,71.94
2022-10-04T09:06:00.365Z,69.84
2022-10-04T09:09:46.741Z,69.70
2022-10-04T09:12:51.014Z,69.08
2022-10-04T09:15:44.243Z,68.92
2022-10-04T09:18:51.836Z,67.39
2022-10-04T09:21:46.340Z,66.78
2022-10-04T09:24:47.345Z,68.03
2022-10-04T09:27:54.575Z,68.82
2022-10-04T09:30:49.167Z,69.27
2022-10-04T09:34:17.139Z,67.77
2022-10-04T09:37:16.879Z,68.51
2022-10-04T09:40:42.394Z,68.59
2022-10-04T09:44:00.328Z,69.41
2022-10-04T09:46:47.620Z,68.65
2022-10-04T09:49:37.865Z,67.40
2022-10-04T09:52:30.048Z,68.02
2022-10-04T09:55:41.500Z,69.84
2022-10-04T09:58:30.126Z,70.00
2022-10-04T10:01:09.229Z,69.40
2022-10-04T10:04:05.793Z,68.38
2022-10-04T10:06:49.335Z,68.82
2022-10-04T10:10:09.792Z,68.34
2022-10-04T10:13:33.295Z,63.65
2022-10-04T10:16:21.418Z,61.93
2022-10-04T10:19:27.446Z,58.28
2022-10-04T10:22:52.749Z,58.48
2022-10-04T10:26:04.396Z,59.18
2022-10-04T10:29:18.344Z,59.23
2022-10-04T10:32:16.139Z,59.44
2022-10-04T10:35:29.674Z,58.04
2022-10-04T10:38:25.686Z,58.32
2022-10-04T10:41:22.542Z,56.96
2022-10-04T10:44:02.400Z,54.99
2022-10-04T10:47:09.628Z,55.25
2022-10-04T10:49:54.736Z,57.02
2022-10-04T10:52:42.449Z,55.43
2022-10-04T10:55:38.138Z,54.27
2022-10-04T10:59:05.569Z,55.35
2022-10-04T11:02:42.346Z,54.09
2022-10-04T11:06:03.652Z,52.78
2022-10-04T11:09:17.131Z,52.24
2022-10-04T11:12:21.516Z,51.63
2022-10-04T11:15:29.392Z,52.37
2022-10-04T11:18:02.375Z,53.23
2022-10-04T11:20:53.295Z,53.18
2022-10-04T11:24:13.825Z,51.95
2022-10-04T11:27:47.816Z,50.64
2022-10-04T11:30:25.110Z,52.45
2022-10-04T11:33:20.420Z,53.08
2022-10-04T11:36:22.503Z,53.07
2022-10-04T11:39:23.871Z,54.33
2022-10-04T11:42:21.660Z,53.85
2022-10-04T11:45:33.997Z,53.46
2022-10-04T11:48:27.065Z,51.57
2022-10-04T11:51:35.230Z,52.52
2022-10-04T11:54:45.757Z,51.33
2022-10-04T11:57:44.306Z,50.92
2022-10-04T12:00:20.715Z,52.17
2022-10-04T12:03:35.530Z,52.31
2022-10-04T12:06:39.976Z,52.45
2022-10-04T12:09:40.663Z,53.09
2022-10-04T12:12:54.416Z,53.24
2022-10-04T12:16:01.610Z,53.04
2022-10-04T12:19:07.615Z,53.71
2022-10-04T12:22:30.888Z,54.29
2022-10-04T12:25:28.232Z,54.17
2022-10-04T12:28:32.822Z,54.04
2022-10-04T12:31:33.366Z,55.46
2022-10-04T12:34:14.755Z,55.60
2022-10-04T12:37:13.827Z,56.53
2022-10-04T12:39:58.539Z,57.01
2022-10-04T12:42:45.843Z,57.40
2022-10-04T12:45:54.422Z,58.56
2022-10-04T12:49:00.777Z,58.87
2022-10-04T12:51:53.678Z,60.22
2022-10-04T12:54:47.552Z,60.69
2022-10-04T12:57:38.602Z,58.98
2022-10-04T13:00:23.401Z,59.34
2022-10-04T13:03:14.991Z,60.39
2022-10-04T13:06:06.537Z,59.95
2022-10-04T13:09:02.457Z,58.82
2022-10-04T13:12:00.741Z,58.68
2022-10-04T13:15:24.419Z,59.28
2022-10-04T13:18:26.888Z,59.02
2022-10-04T13:21:07.792Z,59.94
2022-10-04T13:24:15.816Z,59.83
2022-10-04T13:27:16.381Z,60.02
2022-10-04T13:30:14.372Z,59.67
2022-10-04T13:33:23.859Z,60.59
2022-10-04T13:36:19.391Z,60.41
2022-10-04T13:39:09.873Z,59.98
2022-10-04T13:42:23.175Z,60.00
2022-10-04T13:45:20.429Z,59.78
2022-10-04T13:48:12.757Z,61.14
2022-10-04T13:51:16.987Z,60.60
2022-10-04T13:54:49.030Z,60.85
2022-10-04T13:57:41.976Z,60.73
2022-10-04T14:00:20.288Z,60.47
2022-10-04T14:03:30.435Z,59.81
2022-10-04T14:06:19.769Z,60.00
2022-10-04T14:09:05.509Z,60.39
2022-10-04T14:11:50.409Z,60.41
2022-10-04T14:15:03.905Z,59.70
2022-10-04T14:18:21.300Z,59.95
2022-10-04T14:21:36.403Z,59.59
2022-10-04T14:24:57.258Z,60.82
2022-10-04T14:28:15.388Z,60.38
2022-10-04T14:31:13.335Z,61.95
2022-10-04T14:34:38.003Z,62.05
2022-10-04T14:37:46.115Z,63.30
2022-10-04T14:40:34.197Z,62.92
2022-10-04T14:44:01.741Z,63.31
2022-10-04T14:47:11.660Z,64.07
2022-10-04T14:50:13.132Z,64.66
2022-10-04T14:52:58.164Z,64.45
2022-10-04T14:55:57.601Z,65.34
2022-10-04T14:59:19.045Z,65.04
2022-10-04T15:02:01.066Z,64.47
2022-10-04T15:05:13.163Z,64.66
2022-10-04T15:07:47.649Z,64.22
2022-10-04T15:10:33.037Z,64.11
2022-10-04T15:13:39.465Z,64.91
2022-10-04T15:16:37.448Z,65.40
2022-10-04T15:19:11.359Z,65.36
2022-10-04T15:21:59.683Z,65.23
2022-10-04T15:24:30.339Z,65.57
2022-10-04T15:27:29.744Z,65.94
2022-10-04T15:30:20.971Z,66.02
2022-10-04T15:33:03.001Z,66.43
2022-10-04T15:36:06.856Z,67.53
2022-10-04T15:39:05.147Z,67.47
2022-10-04T15:42:01.370Z,68.58
2022-10-04T15:45:00.344Z,69.12
2022-10-04T15:48:35.605Z,70.03
2022-10-04T15:52:03.318Z,70.42
2022-10-04T15:55:26.149Z,71.02
2022-10-04T15:58:35.270Z,71.58
2022-10-04T16:01:47.204Z,71.90
2022-10-04T16:04:44.876Z,72.24
2022-10-04T16:07:40.357Z,72.90
2022-10-04T16:10:47.725Z,73.13
2022-10-04T16:13:17.335Z,72.99
2022-10-04T16:15:50.324Z,73.28
2022-10-04T16:19:02.188Z,73.71
2022-10-04T16:22:15.145Z,74.22
2022-10-04T16:24:50.697Z,74.38
2022-10-04T16:27:55.996Z,75.28
2022-10-04T16:30:30.534Z,75.62
2022-10-04T16:33:09.505Z,75.68
2022-10-04T16:35:52.503Z,76.36
2022-10-04T16:38:28.754Z,76.29
2022-10-04T16:41:28.113Z,76.85
2022-10-04T16:43:56.210Z,77.20
2022-10-04T16:46:46.251Z,77.86
2022-10-04T16:49:38.840Z,78.26
2022-10-04T16:52:36.479Z,77.86
2022-10-04T16:55:33.300Z,78.62
2022-10-04T16:58:27.901Z,78.73
2022-10-04T17:01:34.087Z,79.34
2022-10-04T17:04:41.229Z,79.80
2022-10-04T17:07:13.504Z,80.02
2022-10-04T17:10:38.462Z,80.02
2022-10-04T17:13:35.543Z,80.74
2022-10-04T17:16:39.449Z,80.98
2022-10-04T17:19:45.547Z,81.80
2022-10-04T17:22:42.898Z,82.29
2022-10-04T17:25:25.045Z,81.95
2022-10-04T17:28:43.307Z,83.06
2022-10-04T17:31:27.533Z,83.43
2022-10-04T17:34:39.573Z,83.31
2022-10-04T17:37:32.467Z,84.01
2022-10-04T17:40:33.649Z,83.97
2022-10-04T17:43:43.546Z,84.56
2022-10-04T17:46:47.152Z,84.98
2022-10-04T17:49:41.993Z,84.75
2022-10-04T17:52:50.507Z,85.11
2022-10-04T17:55:28.688Z,85.26
2022-10-04T17:58:08.942Z,85.28
2022-10-04T18:01:08.363Z,85.87
2022-10-04T18:03:54.730Z,86.76
2022-10-04T18:06:55.921Z,87.55
2022-10-04T18:09:45.976Z,88.16
2022-10-04T18:12:42.249Z,88.47
2022-10-04T18:15:29.700Z,88.49
2022-10-04T18:18:41.326Z,88.16
2022-10-04T18:21:31.780Z,87.69
2022-10-04T18:24:22.576Z,87.14
2022-10-04T18:27:05.700Z,87.44
2022-10-04T18:29:50.982Z,87.99
2022-10-04T18:32:45.195Z,87.91
2022-10-04T18:35:34.252Z,88.00
2022-10-04T18:38:25.319Z,87.99
2022-10-04T18:41:07.585Z,88.04
2022-10-04T18:44:00.151Z,87.84
2022-10-04T18:46:41.305Z,87.77
2022-10-04T18:49:26.109Z,87.97
2022-10-04T18:52:22.886Z,88.76
2022-10-04T18:55:58.415Z,88.51
2022-10-04T18:59:18.214Z,88.71
2022-10-04T19:02:43.336Z,89.13
2022-10-04T19:05:27.934Z,89.92
2022-10-04T19:08:29.488Z,89.92
2022-10-04T19:11:36.943Z,89.92
2022-10-04T19:14:36.445Z,89.56
2022-10-04T19:17:26.863Z,90.01
2022-10-04T19:20:23.818Z,90.30
2022-10-04T19:23:37.433Z,90.44
2022-10-04T19:26:53.615Z,90.30
2022-10-04T19:29:59.079Z,91.20
2022-10-04T19:32:42.903Z,90.67
2022-10-04T19:35:55.630Z,90.40
2022-10-04T19:38:56.004Z,91.06
2022-10-04T19:42:11.268Z,91.18
2022-10-04T19:44:56.608Z,90.91
2022-10-04T19:47:57.447Z,91.00
2022-10-04T19:50:32.600Z,90.93
2022-10-04T19:53:12.563Z,91.24
2022-10-04T19:55:57.458Z,91.60
2022-10-04T19:58:58.518Z,91.54
2022-10-04T20:01:26.324Z,91.69
2022-10-04T20:04:12.235Z,92.04
2022-10-04T20:06:49.861Z,92.00
2022-10-04T20:09:41.380Z,91.20
2022-10-04T20:12:35.597Z,91.83
2022-10-04T20:15:17.642Z,91.76
2022-10-04T20:17:47.607Z,92.20
2022-10-04T20:20:36.282Z,91.72
2022-10-04T20:23:03.235Z,92.44
2022-10-04T20:25:45.943Z,92.00
2022-10-04T20:28:32.911Z,92.41
2022-10-04T20:31:02.787Z,92.29
2022-10-04T20:33:46.226Z,92.76
2022-10-04T20:36:46.589Z,92.80
2022-10-04T20:39:41.739Z,93.00
2022-10-04T20:42:33.822Z,93.46
2022-10-04T20:45:09.670Z,93.72
2022-10-04T20:47:52.494Z,93.45
2022-10-04T20:50:39.919Z,92.59
2022-10-04T20:53:17.215Z,92.97
2022-10-04T20:55:46.069Z,93.71
2022-10-04T20:58:35.292Z,93.81
2022-10-04T21:01:35.967Z,93.87
2022-10-04T21:04:30.586Z,94.08
2022-10-04T21:07:06.385Z,94.59
2022-10-04T21:09:36.220Z,94.75
2022-10-04T21:12:05.049Z,94.85
2022-10-04T21:14:37.623Z,95.00
2022-10-04T21:17:25.932Z,94.87
2022-10-04T21:19:52.902Z,95.25
2022-10-04T21:22:25.908Z,94.87
2022-10-04T21:25:02.111Z,95.14
2022-10-04T21:27:34.935Z,95.53
2022-10-04T21:30:05.635Z,95.33
2022-10-04T21:32:37.313Z,95.52
2022-10-04T21:35:06.507Z,96.52
2022-10-04T21:37:34.597Z,95.42
2022-10-04T21:40:01.887Z,95.81
2022-10-04T21:42:28.806Z,95.33
2022-10-04T21:44:55.711Z,95.90
2022-10-04T21:47:22.764Z,96.14
2022-10-04T21:49:51.895Z,96.52
2022-10-04T21:52:19.198Z,96.67
2022-10-04T21:54:46.632Z,96.23
2022-10-04T21:57:14.093Z,96.06
2022-10-04T21:59:40.989Z,96.42
2022-10-04T22:02:08.400Z,96.84
2022-10-04T22:04:35.385Z,96.19
2022-10-04T22:07:02.310Z,96.30
2022-10-04T22:09:29.268Z,96.71
2022-10-04T22:11:56.279Z,96.70
2022-10-04T22:14:23.275Z,96.37
2022-10-04T22:16:50.942Z,96.27
2022-10-04T22:19:18.186Z,96.27
2022-10-04T22:21:45.096Z,95.95
2022-10-04T22:24:19.881Z,96.57
2022-10-04T22:26:47.339Z,96.74
2022-10-04T22:29:17.506Z,96.53
2022-10-04T22:31:51.368Z,97.34
2022-10-04T22:34:22.802Z,97.63
2022-10-04T22:36:52.103Z,97.52
2022-10-04T22:39:20.830Z,95.99
2022-10-04T22:41:53.733Z,96.48
2022-10-04T22:44:34.618Z,96.40
2022-10-04T22:47:09.869Z,96.72
2022-10-04T22:49:40.212Z,96.78
2022-10-04T22:52:15.488Z,95.95
2022-10-04T22:54:46.981Z,96.48
2022-10-04T22:57:15.949Z,96.55
2022-10-04T22:59:52.795Z,96.07
2022-10-04T23:02:28.547Z,96.57
2022-10-04T23:05:18.991Z,97.03
2022-10-04T23:07:47.406Z,95.94
2022-10-04T23:10:17.742Z,95.95
2022-10-04T23:12:51.577Z,96.48
2022-10-04T23:15:21.059Z,96.45
2022-10-04T23:17:55.465Z,95.87
2022-10-04T23:20:23.261Z,95.76
2022-10-04T23:22:54.282Z,95.83
2022-10-04T23:25:28.267Z,96.42
2022-10-04T23:28:24.775Z,96.58
2022-10-04T23:31:06.156Z,96.15
2022-10-04T23:33:33.095Z,95.06
2022-10-04T23:36:00.090Z,96.03
2022-10-04T23:38:29.309Z,95.59
2022-10-04T23:40:56.285Z,95.93
2022-10-04T23:43:25.754Z,95.78
2022-10-04T23:45:56.217Z,95.19
2022-10-04T23:48:26.868Z,95.50
2022-10-04T23:50:56.453Z,95.24
2022-10-04T23:53:30.717Z,95.31
2022-10-04T23:56:02.662Z,95.00
2022-10-04T23:58:35.886Z,95.00
